Home > Products > Valid Products > TAF

000
FTUS43 KDTX 201100
TAFFNT
TAF
KFNT 201124Z 2012/2112 21010KT P6SM BKN050
     FM201600 22010KT P6SM BKN040
     FM202100 29007KT P6SM BKN025 OVC040
     FM210400 32008KT P6SM OVC015=



000
FTUS43 KDTX 201100
TAFMBS
TAF
KMBS 201124Z 2012/2112 23008KT P6SM BKN045
     FM201900 29005KT P6SM BKN025 OVC040
     FM210400 32008KT P6SM OVC015=



000
FTUS43 KDTX 201100
TAFDET
TAF
KDET 201124Z 2012/2112 21010KT P6SM BKN050
     FM201800 22010KT P6SM -SHRA BKN040
     FM202300 29007KT P6SM BKN025 OVC040
     FM210800 32008KT P6SM OVC015=



000
FTUS43 KDTX 201100
TAFDTW
TAF
KDTW 201124Z 2012/2118 21010KT P6SM BKN050
     FM201800 22010KT P6SM -SHRA BKN040
     FM202300 29007KT P6SM BKN025 OVC040
     FM210800 32008KT P6SM OVC015=



000
FTUS43 KDTX 200800 AAA
TAFDTW
TAF AMD
KDTW 200840Z 2008/2112 19009KT P6SM OVC080
     FM201200 21010KT P6SM OVC060
     FM201600 22010KT P6SM -SHRA BKN040 OVC060
     FM202300 29007KT P6SM BKN025 OVC040=



000
FTUS43 KDTX 200500
TAFMBS
TAF
KMBS 200523Z 2006/2106 22009KT P6SM SCT040 OVC080
     FM200800 21007KT P6SM -SHRA SCT020 OVC040
     FM201200 23008KT 6SM -SHRA SCT009 OVC018
     FM201900 29005KT P6SM -SHRA SCT006 OVC015=



000
FTUS43 KDTX 200500
TAFFNT
TAF
KFNT 200523Z 2006/2106 22009KT P6SM SCT050 OVC090
     FM201000 21009KT P6SM SCT025 OVC050
     FM201300 23008KT 6SM -SHRA SCT010 OVC020
     FM201900 29005KT P6SM -SHRA SCT006 OVC015=



000
FTUS43 KDTX 200500
TAFDET
TAF
KDET 200523Z 2006/2106 21008KT P6SM SCT080 OVC120
     FM201000 21010KT P6SM SCT025 OVC050
     FM201500 22010KT P6SM -SHRA BKN025 OVC040
     FM202000 29005KT P6SM -SHRA SCT012 OVC022=



000
FTUS43 KDTX 200500
TAFDTW
TAF
KDTW 200523Z 2006/2112 21008KT P6SM SCT080 OVC120
     FM201000 21010KT P6SM SCT025 OVC050
     FM201500 22010KT P6SM -SHRA BKN025 OVC040
     FM202000 29005KT P6SM -SHRA SCT012 OVC022
     FM210600 32009KT P6SM -DZ OVC015=



000
FTUS43 KDTX 200300 AAA
TAFDTW
TAF AMD
KDTW 200305Z 2003/2106 19007KT P6SM OVC150
     FM200600 21008KT P6SM SCT080 OVC120
     FM201000 21010KT P6SM SCT025 OVC050
     FM201500 22010KT P6SM -SHRA BKN025 OVC040
     FM202000 29005KT P6SM -SHRA SCT012 OVC022=



000
FTUS43 KDTX 192300
TAFDET
TAF
KDET 192333Z 2000/2024 22007KT P6SM OVC150
     FM200600 21008KT P6SM SCT080 OVC120
     FM201000 21010KT P6SM SCT025 OVC050
     FM201500 22010KT P6SM -SHRA BKN025 OVC040
     FM202000 29005KT P6SM -SHRA SCT012 OVC022=



000
FTUS43 KDTX 192300
TAFMBS
TAF
KMBS 192333Z 2000/2024 23008KT P6SM OVC100
     FM200400 22009KT P6SM SCT040 OVC080
     FM200800 21007KT P6SM -SHRA SCT020 OVC040
     FM201200 23008KT 6SM -SHRA SCT009 OVC018
     FM201900 29005KT P6SM -SHRA SCT006 OVC015=



000
FTUS43 KDTX 192300
TAFDTW
TAF
KDTW 192333Z 2000/2106 19007KT P6SM OVC150
     FM200600 21008KT P6SM SCT080 OVC120
     FM201000 21010KT P6SM SCT025 OVC050
     FM201500 22010KT P6SM -SHRA BKN025 OVC040
     FM202000 29005KT P6SM -SHRA SCT012 OVC022=



000
FTUS43 KDTX 192300
TAFFNT
TAF
KFNT 192333Z 2000/2024 22008KT P6SM OVC100
     FM200300 22009KT P6SM SCT050 OVC090
     FM201000 21009KT P6SM SCT025 OVC050
     FM201300 23008KT 6SM -SHRA SCT010 OVC020
     FM201900 29005KT P6SM -SHRA SCT006 OVC015=



000
FTUS43 KDTX 192300
TAFDET
TAF
KDET 192333Z 2000/2024 22007KT P6SM OVC150
     FM200600 21008KT P6SM SCT080 OVC120
     FM201000 21010KT P6SM SCT025 OVC050
     FM201500 22010KT P6SM -SHRA BKN025 OVC040
     FM202000 29005KT P6SM -SHRA SCT012 OVC022=



000
FTUS43 KDTX 192300
TAFDTW
TAF
KDTW 192333Z 2000/2106 19007KT P6SM OVC150
     FM200600 21008KT P6SM SCT080 OVC120
     FM201000 21010KT P6SM SCT025 OVC050
     FM201500 22010KT P6SM -SHRA BKN025 OVC040
     FM202000 29005KT P6SM -SHRA SCT012 OVC022=



000
FTUS43 KDTX 192300
TAFMBS
TAF
KMBS 192333Z 2000/2024 23008KT P6SM OVC100
     FM200400 22009KT P6SM SCT040 OVC080
     FM200800 21007KT P6SM -SHRA SCT020 OVC040
     FM201200 23008KT 6SM -SHRA SCT009 OVC018
     FM201900 29005KT P6SM -SHRA SCT006 OVC015=



000
FTUS43 KDTX 192300
TAFFNT
TAF
KFNT 192333Z 2000/2024 22008KT P6SM OVC100
     FM200300 22009KT P6SM SCT050 OVC090
     FM201000 21009KT P6SM SCT025 OVC050
     FM201300 23008KT 6SM -SHRA SCT010 OVC020
     FM201900 29005KT P6SM -SHRA SCT006 OVC015=



000
FTUS43 KDTX 192100 AAA
TAFDTW
TAF AMD
KDTW 192106Z 1921/2024 22006KT P6SM FEW035 BKN200
     FM192300 20007KT P6SM OVC150
     FM200600 21008KT P6SM SCT080 OVC120
     FM201000 21010KT P6SM SCT025 OVC050
     FM201500 22010KT P6SM -SHRA BKN025 OVC040
     FM202000 29005KT P6SM -SHRA SCT012 OVC022=



000
FTUS43 KDTX 191700
TAFMBS
TAF
KMBS 191722Z 1918/2018 23007KT P6SM SCT030 BKN150
      TEMPO 1919/1921 BKN030
     FM192200 23008KT P6SM OVC100
     FM200400 22009KT P6SM SCT040 OVC080
     FM200800 21007KT P6SM -SHRA SCT020 OVC040
     FM201200 23008KT 6SM -SHRA SCT009 OVC018=



000
FTUS43 KDTX 191700
TAFFNT
TAF
KFNT 191722Z 1918/2018 23007KT P6SM FEW030 BKN200
     FM192300 22008KT P6SM OVC100
     FM200300 22009KT P6SM SCT050 OVC090
     FM201000 21009KT P6SM SCT025 OVC050
     FM201300 23008KT 6SM -SHRA SCT010 OVC020=



000
FTUS43 KDTX 191700
TAFDET
TAF
KDET 191722Z 1918/2018 24006KT P6SM FEW035 BKN200
     FM192300 20007KT P6SM OVC150
     FM200600 21008KT P6SM SCT080 OVC120
     FM201000 21010KT P6SM SCT025 OVC050
     FM201500 22010KT P6SM -SHRA BKN025 OVC040=



000
FTUS43 KDTX 191700
TAFDTW
TAF
KDTW 191722Z 1918/2024 24006KT P6SM FEW035 BKN200
     FM192300 20007KT P6SM OVC150
     FM200600 21008KT P6SM SCT080 OVC120
     FM201000 21010KT P6SM SCT025 OVC050
     FM201500 22010KT P6SM -SHRA BKN025 OVC040
     FM202000 29005KT P6SM -SHRA SCT012 OVC022=



000
FTUS43 KDTX 191400 AAA
TAFDTW
TAF AMD
KDTW 191459Z 1915/2018 27006KT P6SM FEW035 BKN250
     FM192300 20007KT P6SM OVC120
     FM201000 21009KT P6SM SCT050 OVC080
     FM201500 21010KT P6SM -SHRA BKN025 OVC040=



000
FTUS43 KDTX 191100
TAFFNT
TAF
KFNT 191120Z 1912/2012 30005KT P6SM SKC
     FM191400 27007KT P6SM SCT035 BKN250
     FM192200 20007KT P6SM OVC100
     FM201000 21009KT P6SM -SHRA SCT045 OVC070=



000
FTUS43 KDTX 191100
TAFMBS
TAF
KMBS 191120Z 1912/2012 34005KT P6SM SCT025
     FM191400 27007KT P6SM SCT035 BKN250
     FM192000 23008KT P6SM OVC100
     FM200800 21007KT P6SM -SHRA SCT035 OVC050=



000
FTUS43 KDTX 191100
TAFDET
TAF
KDET 191120Z 1912/2012 30005KT P6SM SKC
     FM191400 27007KT P6SM SCT035 BKN250
     FM192300 20007KT P6SM OVC120
     FM201000 21009KT P6SM SCT050 OVC080=



000
FTUS43 KDTX 191100
TAFDTW
TAF
KDTW 191120Z 1912/2018 30005KT P6SM SKC
     FM191400 27007KT P6SM SCT035 BKN250
     FM192300 20007KT P6SM OVC120
     FM201000 21009KT P6SM SCT050 OVC080
     FM201500 21010KT P6SM -SHRA BKN025 OVC040=



000
FTUS43 KDTX 190800 AAB
TAFDTW
TAF AMD
KDTW 190820Z 1908/2012 29005KT P6SM SCT250
     FM191400 27007KT P6SM SCT035 BKN250
     FM192000 22001KT P6SM OVC150
     FM200000 20007KT P6SM OVC080
     FM200800 21009KT P6SM BKN040 OVC060=



000
FTUS43 KDTX 190700 AAA
TAFMBS
TAF AMD
KMBS 190716Z 1907/2006 34005KT P6SM SCT030
     FM191400 27007KT P6SM SCT035 BKN250
     FM192000 23001KT P6SM SCT040 OVC100
     FM200000 21007KT P6SM SCT030 OVC060=



000
FTUS43 KDTX 190700 AAA
TAFDTW
TAF AMD
KDTW 190714Z 1907/2012 30005KT P6SM SCT040
     FM191400 27007KT P6SM SCT035 BKN250
     FM192000 22001KT P6SM OVC150
     FM200000 20007KT P6SM OVC080
     FM200800 21009KT P6SM BKN040 OVC060=



000
FTUS43 KDTX 190500
TAFFNT
TAF
KFNT 190522Z 1906/2006 32005KT P6SM FEW040
     FM191400 27007KT P6SM SCT035 BKN250
     FM192000 23001KT P6SM OVC120
     FM200000 20007KT P6SM OVC070=



000
FTUS43 KDTX 190500
TAFDTW
TAF
KDTW 190522Z 1906/2012 30005KT P6SM SCT040
      TEMPO 1906/1910 BKN040
     FM191400 27007KT P6SM SCT035 BKN250
     FM192000 22001KT P6SM OVC150
     FM200000 20007KT P6SM OVC080
     FM200800 21009KT P6SM BKN040 OVC060=



000
FTUS43 KDTX 190500
TAFMBS
TAF
KMBS 190522Z 1906/2006 34005KT P6SM SCT030
      TEMPO 1906/1910 BKN030
     FM191400 27007KT P6SM SCT035 BKN250
     FM192000 23001KT P6SM SCT040 OVC100
     FM200000 21007KT P6SM SCT030 OVC060=



000
FTUS43 KDTX 190500
TAFDET
TAF
KDET 190522Z 1906/2006 32005KT P6SM SCT040
      TEMPO 1906/1910 BKN040
     FM191400 27007KT P6SM SCT035 BKN250
     FM192000 22001KT P6SM OVC150
     FM200000 20007KT P6SM OVC080=



000
FTUS43 KDTX 190300 AAA
TAFDET
TAF AMD
KDET 190308Z 1903/1924 32010KT P6SM SCT040 BKN250
      TEMPO 1903/1906 BKN040
     FM190600 30005KT P6SM SCT250
     FM191400 27007KT P6SM SCT035 BKN250
     FM192000 22001KT P6SM OVC150=



000
FTUS43 KDTX 190300 AAA
TAFDTW
TAF AMD
KDTW 190305Z 1903/2006 30010KT P6SM SCT040 BKN250
      TEMPO 1903/1906 BKN040
     FM190600 30005KT P6SM SCT250
     FM191400 27007KT P6SM SCT035 BKN250
     FM192000 22001KT P6SM OVC150
     FM200000 20007KT P6SM OVC080=



000
FTUS43 KDTX 190000 AAA
TAFFNT
TAF AMD
KFNT 190057Z 1901/1924 30006KT P6SM SCT040 BKN250
      TEMPO 1901/1904 BKN040
     FM190400 30005KT P6SM SCT250
     FM191400 27007KT P6SM SCT035 BKN250
     FM192000 22001KT P6SM OVC150=



000
FTUS43 KDTX 182300
TAFMBS
TAF
KMBS 182338Z 1900/1924 34010KT P6SM SCT040 BKN250
     FM190400 30005KT P6SM SCT250
     FM191400 27007KT P6SM SCT035 BKN250
     FM192000 22001KT P6SM OVC150=



000
FTUS43 KDTX 182300
TAFDET
TAF
KDET 182338Z 1900/1924 34010KT P6SM SCT025 BKN040
      TEMPO 1900/1903 OVC025
     FM190300 32010KT P6SM SCT040 BKN250
     FM190500 30005KT P6SM SCT250
     FM191400 27007KT P6SM SCT035 BKN250
     FM192000 22001KT P6SM OVC150=



000
FTUS43 KDTX 182300
TAFFNT
TAF
KFNT 182338Z 1900/1924 34013KT P6SM SCT025 BKN040
      TEMPO 1900/1901 OVC025
     FM190100 32010KT P6SM SCT040 BKN250
     FM190400 30005KT P6SM SCT250
     FM191400 27007KT P6SM SCT035 BKN250
     FM192000 22001KT P6SM OVC150=



000
FTUS43 KDTX 182300
TAFDTW
TAF
KDTW 182338Z 1900/2006 32010KT P6SM SCT025 BKN040
      TEMPO 1900/1903 OVC025
     FM190300 30010KT P6SM SCT040 BKN250
     FM190500 30005KT P6SM SCT250
     FM191400 27007KT P6SM SCT035 BKN250
     FM192000 22001KT P6SM OVC150
     FM200000 20007KT P6SM OVC080=



000
FTUS43 KDTX 182200 AAB
TAFFNT
TAF AMD
KFNT 182244Z 1823/1918 34013KT P6SM SCT025 BKN040
      TEMPO 1823/1901 OVC025
     FM190100 32010KT P6SM SCT040 BKN250
     FM190400 30005KT P6SM SCT250
     FM191400 27007KT P6SM SCT035 BKN250=



000
FTUS43 KDTX 182200 AAA
TAFMBS
TAF AMD
KMBS 182244Z 1823/1918 32010KT P6SM SCT040 BKN250
     FM190400 30005KT P6SM SCT250
     FM191400 27007KT P6SM SCT035 BKN250=



000
FTUS43 KDTX 182200 AAA
TAFDET
TAF AMD
KDET 182243Z 1823/1918 34013G20KT P6SM SCT025 BKN040
      TEMPO 1823/1901 OVC025
     FM190200 32010KT P6SM SCT040 BKN250
     FM190500 30005KT P6SM SCT250
     FM191400 27007KT P6SM SCT035 BKN250=



000
FTUS43 KDTX 182100 AAA
TAFDTW
TAF AMD
KDTW 182106Z 1821/1924 32010KT P6SM SCT025 BKN040
      TEMPO 1821/1901 OVC025
     FM190200 30010KT P6SM SCT040 BKN250
     FM190500 30005KT P6SM SCT250
     FM191400 27007KT P6SM SCT035 BKN250
     FM192000 22001KT P6SM OVC150=



000
FTUS43 KDTX 182000 AAA
TAFFNT
TAF AMD
KFNT 182001Z 1820/1918 34013KT P6SM SCT025 BKN040
      TEMPO 1820/1822 OVC025
     FM190000 32010KT P6SM SCT040 BKN250
     FM190400 30005KT P6SM SCT250
     FM191400 27007KT P6SM SCT035 BKN250=



000
FTUS43 KDTX 182000 AAA
TAFFNT
TAF AMD
KFNT 182001Z 1820/1918 34013KT P6SM SCT025 BKN040
      TEMPO 1820/1822 OVC025
     FM190000 32010KT P6SM SCT040 BKN250
     FM190400 30005KT P6SM SCT250
     FM191400 27007KT P6SM SCT035 BKN250=



000
FTUS43 KDTX 181700
TAFFNT
TAF
KFNT 181723Z 1818/1918 34013G20KT P6SM SCT025 BKN040
      TEMPO 1818/1820 OVC025
     FM190000 32010KT P6SM SCT040 BKN250
     FM190400 30005KT P6SM SCT250
     FM191400 27007KT P6SM SCT035 BKN250=



000
FTUS43 KDTX 181700
TAFMBS
TAF
KMBS 181723Z 1818/1918 34013G20KT P6SM SCT025 BKN040
      TEMPO 1818/1820 OVC025
     FM182300 32010KT P6SM SCT040 BKN250
     FM190400 30005KT P6SM SCT250
     FM191400 27007KT P6SM SCT035 BKN250=



000
FTUS43 KDTX 181700
TAFDTW
TAF
KDTW 181723Z 1818/1924 32013G20KT P6SM SCT025 BKN040
      TEMPO 1818/1822 OVC025
     FM190200 30010KT P6SM SCT040 BKN250
     FM190500 30005KT P6SM SCT250
     FM191400 27007KT P6SM SCT035 BKN250
     FM192000 22001KT P6SM OVC150=



000
FTUS43 KDTX 181700
TAFDET
TAF
KDET 181723Z 1818/1918 34013G20KT P6SM SCT025 BKN040
      TEMPO 1818/1822 OVC025
     FM190200 32010KT P6SM SCT040 BKN250
     FM190500 30005KT P6SM SCT250
     FM191400 27007KT P6SM SCT035 BKN250=



000
FTUS43 KDTX 181500 AAA
TAFDTW
TAF AMD
KDTW 181501Z 1815/1918 32013G20KT P6SM BKN025 OVC120
     FM181700 32013G20KT P6SM BKN040
     FM182200 30010KT P6SM SCT040 BKN250
     FM190400 30005KT P6SM SCT250=



000
FTUS43 KDTX 181500 AAA
TAFDTW
TAF AMD
KDTW 181501Z 1815/1918 32013G20KT P6SM BKN025 OVC120
     FM181700 32013G20KT P6SM BKN040
     FM182200 30010KT P6SM SCT040 BKN250
     FM190400 30005KT P6SM SCT250=



000
FTUS43 KDTX 181100
TAFMBS
TAF
KMBS 181120Z 1812/1912 31012G18KT P6SM BKN025 BKN035
     FM181600 33013G20KT P6SM BKN040
     FM182200 30010KT P6SM SCT040 BKN250
     FM190400 30005KT P6SM SCT250=



000
FTUS43 KDTX 181100
TAFDTW
TAF
KDTW 181120Z 1812/1918 31012G18KT P6SM SCT025 BKN035
     FM181600 33013G20KT P6SM BKN040
     FM182200 30010KT P6SM SCT040 BKN250
     FM190400 30005KT P6SM SCT250=



000
FTUS43 KDTX 181100
TAFMBS
TAF
KMBS 181120Z 1812/1912 31012G18KT P6SM BKN025 BKN035
     FM181600 33013G20KT P6SM BKN040
     FM182200 30010KT P6SM SCT040 BKN250
     FM190400 30005KT P6SM SCT250=



000
FTUS43 KDTX 181100
TAFDET
TAF
KDET 181120Z 1812/1912 31012G18KT P6SM BKN025 BKN035
     FM181600 33013G20KT P6SM BKN040
     FM182200 30010KT P6SM SCT040 BKN250
     FM190400 30005KT P6SM SCT250=



000
FTUS43 KDTX 181100
TAFFNT
TAF
KFNT 181120Z 1812/1912 31012G18KT P6SM BKN025 BKN035
     FM181600 33013G20KT P6SM BKN040
     FM182200 30010KT P6SM SCT040 BKN250
     FM190400 30005KT P6SM SCT250=



000
FTUS43 KDTX 181100
TAFFNT
TAF
KFNT 181120Z 1812/1912 31012G18KT P6SM BKN025 BKN035
     FM181600 33013G20KT P6SM BKN040
     FM182200 30010KT P6SM SCT040 BKN250
     FM190400 30005KT P6SM SCT250=



000
FTUS43 KDTX 181100
TAFDTW
TAF
KDTW 181120Z 1812/1918 31012G18KT P6SM SCT025 BKN035
     FM181600 33013G20KT P6SM BKN040
     FM182200 30010KT P6SM SCT040 BKN250
     FM190400 30005KT P6SM SCT250=



000
FTUS43 KDTX 181100
TAFDET
TAF
KDET 181120Z 1812/1912 31012G18KT P6SM BKN025 BKN035
     FM181600 33013G20KT P6SM BKN040
     FM182200 30010KT P6SM SCT040 BKN250
     FM190400 30005KT P6SM SCT250=



000
FTUS43 KDTX 181000 AAB
TAFDTW
TAF AMD
KDTW 181039Z 1811/1912 29012G18KT P6SM SCT025 BKN035
     FM181600 33013G20KT P6SM BKN040
     FM182200 30010KT P6SM SCT040 BKN250
     FM190600 30005KT P6SM SCT250=



000
FTUS43 KDTX 181000 AAB
TAFDTW
TAF AMD
KDTW 181039Z 1811/1912 29012G18KT P6SM SCT025 BKN035
     FM181600 33013G20KT P6SM BKN040
     FM182200 30010KT P6SM SCT040 BKN250
     FM190600 30005KT P6SM SCT250=



000
FTUS43 KDTX 180700 AAA
TAFDET
TAF AMD
KDET 180759Z 1808/1906 29012G18KT P6SM -SHRA SCT015 OVC025
     FM181200 30010KT P6SM OVC015
     FM181600 33013G20KT P6SM BKN040
     FM182200 30010KT P6SM SCT040 BKN250=



000
FTUS43 KDTX 180700 AAA
TAFDTW
TAF AMD
KDTW 180759Z 1808/1912 29012G18KT P6SM -SHRA SCT015 OVC025
     FM181200 30010KT P6SM OVC015
     FM181600 33013G20KT P6SM BKN040
     FM182200 30010KT P6SM SCT040 BKN250
     FM190600 30005KT P6SM SCT250=



000
FTUS43 KDTX 180500
TAFDET
TAF
KDET 180525Z 1806/1906 29013G20KT 6SM -SHRA BR SCT015 OVC025
      TEMPO 1806/1810 4SM -SHRA BR OVC015
     FM181000 30010KT P6SM OVC015
     FM181600 33013G20KT P6SM BKN040
     FM182200 30010KT P6SM SCT040 BKN250=



000
FTUS43 KDTX 180500
TAFMBS
TAF
KMBS 180525Z 1806/1906 30010KT P6SM OVC025
     FM181500 33013G20KT P6SM BKN040
     FM182200 30010KT P6SM SCT040 BKN250=



000
FTUS43 KDTX 180500
TAFFNT
TAF
KFNT 180525Z 1806/1906 30010G20KT P6SM OVC025
      TEMPO 1806/1808 4SM -SHRA BR OVC015
     FM181500 33013G20KT P6SM BKN040
     FM182200 30010KT P6SM SCT040 BKN250=



000
FTUS43 KDTX 180500
TAFDTW
TAF
KDTW 180525Z 1806/1912 29013G20KT 6SM -SHRA BR SCT015 OVC025
      TEMPO 1806/1810 4SM -SHRA BR OVC015
     FM181000 30010KT P6SM OVC015
     FM181600 33013G20KT P6SM BKN040
     FM182200 30010KT P6SM SCT040 BKN250
     FM190600 30005KT P6SM SCT250=



000
FTUS43 KDTX 180300 AAA
TAFMBS
TAF AMD
KMBS 180303Z 1803/1824 30013G23KT 6SM -SHRA SCT008 OVC025
      TEMPO 1803/1806 4SM -SHRA BR OVC008
     FM180600 30010KT P6SM OVC015
     FM181500 33013G20KT P6SM BKN040
     FM182200 30010KT P6SM SCT040 BKN250=



000
FTUS43 KDTX 180300 AAA
TAFFNT
TAF AMD
KFNT 180302Z 1803/1824 29013G20KT P6SM SCT015 BKN045
      TEMPO 1803/1806 4SM -SHRA BR OVC015
     FM180600 30010KT P6SM OVC015
     FM181500 33013G20KT P6SM BKN040
     FM182200 30010KT P6SM SCT040 BKN250=



000
FTUS43 KDTX 180300 AAA
TAFDTW
TAF AMD
KDTW 180300Z 1803/1906 27013G20KT P6SM SCT025 BKN040
      TEMPO 1803/1806 BKN025
     FM180600 27013KT 6SM -SHRA BR SCT008 OVC025
      TEMPO 1806/1810 4SM -SHRA BR OVC008
     FM181000 30010KT P6SM OVC015
     FM181600 33013G20KT P6SM BKN040
     FM182200 30010KT P6SM SCT040 BKN250=



000
FTUS43 KDTX 180300 AAA
TAFDET
TAF AMD
KDET 180300Z 1803/1824 28013G20KT P6SM SCT025 BKN040
      TEMPO 1803/1806 BKN025
     FM180600 27013KT 6SM -SHRA BR SCT008 OVC025
      TEMPO 1806/1810 4SM -SHRA BR OVC008
     FM181000 30010KT P6SM OVC015
     FM181600 33013G20KT P6SM BKN040
     FM182200 30010KT P6SM SCT040 BKN250=



000
FTUS43 KDTX 172300
TAFMBS
TAF
KMBS 172325Z 1800/1824 27013G23KT 6SM -SHRA SCT008 OVC025
      TEMPO 1800/1804 4SM -SHRA BR OVC008
     FM180400 30010KT P6SM OVC015
     FM181500 33013G20KT P6SM BKN040
     FM182200 30010KT P6SM SCT040 BKN250=



000
FTUS43 KDTX 172300
TAFDTW
TAF
KDTW 172325Z 1800/1906 27013G20KT P6SM SCT025 BKN040
      TEMPO 1800/1803 BKN025
     FM180300 27013KT 6SM -SHRA BR SCT008 OVC025
      TEMPO 1803/1807 4SM -SHRA BR OVC008
     FM180700 30010KT P6SM OVC015
     FM181600 33013G20KT P6SM BKN040
     FM182200 30010KT P6SM SCT040 BKN250=



000
FTUS43 KDTX 172300
TAFDTW
TAF
KDTW 172325Z 1800/1906 27013G20KT P6SM SCT025 BKN040
      TEMPO 1800/1803 BKN025
     FM180300 27013KT 6SM -SHRA BR SCT008 OVC025
      TEMPO 1803/1807 4SM -SHRA BR OVC008
     FM180700 30010KT P6SM OVC015
     FM181600 33013G20KT P6SM BKN040
     FM182200 30010KT P6SM SCT040 BKN250=



000
FTUS43 KDTX 172300
TAFFNT
TAF
KFNT 172325Z 1800/1824 27013G20KT P6SM BKN045
      TEMPO 1801/1805 4SM -SHRA BR OVC008
     FM180500 30010KT P6SM OVC015
     FM181500 33013G20KT P6SM BKN040
     FM182200 30010KT P6SM SCT040 BKN250=



000
FTUS43 KDTX 172300
TAFMBS
TAF
KMBS 172325Z 1800/1824 27013G23KT 6SM -SHRA SCT008 OVC025
      TEMPO 1800/1804 4SM -SHRA BR OVC008
     FM180400 30010KT P6SM OVC015
     FM181500 33013G20KT P6SM BKN040
     FM182200 30010KT P6SM SCT040 BKN250=



000
FTUS43 KDTX 172300
TAFDET
TAF
KDET 172325Z 1800/1824 28013G20KT P6SM SCT025 BKN040
      TEMPO 1800/1803 BKN025
     FM180300 27013KT 6SM -SHRA BR SCT008 OVC025
      TEMPO 1803/1807 4SM -SHRA BR OVC008
     FM180700 30010KT P6SM OVC015
     FM181600 33013G20KT P6SM BKN040
     FM182200 30010KT P6SM SCT040 BKN250=



000
FTUS43 KDTX 172300
TAFDET
TAF
KDET 172325Z 1800/1824 28013G20KT P6SM SCT025 BKN040
      TEMPO 1800/1803 BKN025
     FM180300 27013KT 6SM -SHRA BR SCT008 OVC025
      TEMPO 1803/1807 4SM -SHRA BR OVC008
     FM180700 30010KT P6SM OVC015
     FM181600 33013G20KT P6SM BKN040
     FM182200 30010KT P6SM SCT040 BKN250=



000
FTUS43 KDTX 172300
TAFFNT
TAF
KFNT 172325Z 1800/1824 27013G20KT P6SM BKN045
      TEMPO 1801/1805 4SM -SHRA BR OVC008
     FM180500 30010KT P6SM OVC015
     FM181500 33013G20KT P6SM BKN040
     FM182200 30010KT P6SM SCT040 BKN250=



000
FTUS43 KDTX 171900 AAA
TAFDET
TAF AMD
KDET 171958Z 1720/1818 25013G20KT P6SM BKN040
     FM180300 27013KT 4SM -SHRA BR OVC008
     FM180700 30010KT P6SM OVC015
     FM181600 33013G20KT P6SM BKN040=



000
FTUS43 KDTX 171900 AAA
TAFDET
TAF AMD
KDET 171958Z 1720/1818 25013G20KT P6SM BKN040
     FM180300 27013KT 4SM -SHRA BR OVC008
     FM180700 30010KT P6SM OVC015
     FM181600 33013G20KT P6SM BKN040=



000
FTUS43 KDTX 171900 AAA
TAFDTW
TAF AMD
KDTW 171957Z 1720/1824 23013G20KT P6SM BKN040
     FM180300 27013KT 4SM -SHRA BR OVC008
     FM180700 30010KT P6SM OVC015
     FM181600 33013G20KT P6SM BKN040
     FM182200 30010KT P6SM SCT040 BKN250=



000
FTUS43 KDTX 171900 AAA
TAFDTW
TAF AMD
KDTW 171957Z 1720/1824 23013G20KT P6SM BKN040
     FM180300 27013KT 4SM -SHRA BR OVC008
     FM180700 30010KT P6SM OVC015
     FM181600 33013G20KT P6SM BKN040
     FM182200 30010KT P6SM SCT040 BKN250=



000
FTUS43 KDTX 171700
TAFDET
TAF
KDET 171732Z 1718/1818 23013KT P6SM BKN018 BKN070
     FM171900 23013G20KT P6SM SCT025 BKN200
     FM172000 25015G25KT P6SM BKN030
     FM172200 25013G20KT P6SM BKN045
     FM180300 27013KT 4SM -SHRA BR OVC008
     FM180700 30010KT P6SM OVC015
     FM181600 33013G20KT P6SM BKN040=



000
FTUS43 KDTX 171700
TAFMBS
TAF
KMBS 171732Z 1718/1818 23013G20KT P6SM BKN015
     FM171900 24015G25KT P6SM BKN030
     FM172200 25013G23KT 6SM -SHRA OVC025
     FM180100 27013KT 4SM -SHRA BR OVC008
     FM180400 30010KT P6SM OVC015
     FM181500 33013G20KT P6SM BKN040=



000
FTUS43 KDTX 171700
TAFDTW
TAF
KDTW 171732Z 1718/1824 22013G20KT P6SM SCT020 BKN200
     FM172000 25015G25KT P6SM BKN030
     FM172200 25013G20KT P6SM BKN045
     FM180300 27013KT 4SM -SHRA BR OVC008
     FM180700 30010KT P6SM OVC015
     FM181600 33013G20KT P6SM BKN040
     FM182200 30010KT P6SM SCT040 BKN250=



000
FTUS43 KDTX 171700
TAFFNT
TAF
KFNT 171732Z 1718/1818 23013G20KT P6SM SCT020
     FM171900 23015G25KT P6SM BKN030
     FM172200 25013G20KT P6SM BKN045
     FM180100 27013KT 4SM -SHRA BR OVC008
     FM180500 30010KT P6SM OVC015
     FM181500 33013G20KT P6SM BKN040=



000
FTUS43 KDTX 171500 AAA
TAFMBS
TAF AMD
KMBS 171518Z 1715/1812 21013G20KT P6SM OVC015
     FM171700 23013G23KT P6SM BKN025
     FM172200 25013G23KT 6SM -SHRA OVC025
     FM180000 27013KT 4SM -SHRA BR OVC015
     FM180300 30013KT P6SM OVC015=



000
FTUS43 KDTX 171500 AAA
TAFFNT
TAF AMD
KFNT 171516Z 1715/1812 21013KT P6SM OVC017
     FM171700 21013G20KT P6SM BKN025
     FM171900 23013G23KT P6SM SCT025
     FM172200 25013G23KT P6SM BKN045
     FM180000 27013KT 5SM -SHRA BKN015 OVC045
     FM180500 30013KT P6SM OVC015=



000
FTUS43 KDTX 171500 AAA
TAFDET
TAF AMD
KDET 171505Z 1715/1812 21013KT P6SM OVC017
     FM171700 21013KT P6SM BKN025 BKN070
     FM171900 23013G23KT P6SM SCT025
     FM172200 25013G23KT P6SM BKN045
     FM180000 27013KT 6SM -SHRA OVC015
     FM180600 28013KT P6SM OVC015=



000
FTUS43 KDTX 171500 AAA
TAFDTW
TAF AMD
KDTW 171500Z 1715/1818 20013KT P6SM BKN020 OVC070
     FM171900 22013G23KT P6SM SCT025
     FM172200 24013G23KT P6SM BKN045
     FM180000 26013KT 6SM -SHRA OVC015
     FM180600 28013KT P6SM OVC015
     FM181500 32012G20KT P6SM BKN040=



    US Dept of Commerce
    National Oceanic and Atmospheric Administration
    National Weather Service
    1325 East West Highway
    Silver Spring, MD 20910
    Page Author: NWS Internet Services Team
Disclaimer
Information Quality
Credits
Glossary
Privacy Policy
Freedom of Information Act (FOIA)
About Us
Career Opportunities